Aviation Digital Data Service (ADDS)

Output produced by METARs form (1153 UTC 23 May 2015)
found at http://aviationweather.gov/adds/metars/
 
KSSI 231121Z 2312/2412 07008KT P6SM BKN200 
     FM231400 06012KT P6SM SCT040 
     FM231700 07014G22KT P6SM BKN040 
     FM240600 06010KT P6SM BKN025